Marcus G. Langseth — WDC6698 — position and weather

sailwx.info

Track history (hours):
 
Tides and Currents Weather Stations Pressure Air Temp Water Temp Dewpoint Dewpoint Depression Visibility Wind Speed Wind Dir Waves Ship Positions

Oceanographic research ship Marcus G. Langseth (USA)

Detailed information on ship capabilities available from ARCUS's ALIAS (Arctic Logistics Information and Support) project.

Owner: Lamont Doherty Earth Observatory-Columbia University, Palisades, NY. More information available from US FCC via Universal Licensing System and Coast Guard Vessel Documentation Center.

Last reported at 2019-Dec-12 06:00 UTC. Time now 2019-Dec-12 07:56 UTC.
Position N 44°36' W 124°00'.

Length 72 m; draft 6.1 m.

Type: Ship. MMSI: 367059880.

Wind from 190 at 10 knots

Barometer 1013.9 mb
Air temperature 11.8 ° C
Dewpoint 9.3 ° C

Date/timePositionNaut miles runAvg speedWind from/ knotsBaromVisibWave heightAir tempDewpointWater temp
2019-Dec-12 06:00N 44°36' W 124°00'0 0.0 190 / 101013.9 11.8 9.3
2019-Dec-12 05:00N 44°36' W 124°00'0 0.0 210 / 121013.2 11.7 9.3
2019-Dec-12 04:00N 44°36' W 124°00'0 0.0 190 / 111012.2 11.5 9.0
2019-Dec-12 03:00N 44°36' W 124°00'0 0.0 190 / 111011.6 11.1 8.4
2019-Dec-12 02:00N 44°36' W 124°00'0 0.0 190 / 101011.0 11.3 8.3
2019-Dec-12 01:00N 44°36' W 124°00'0 0.0 200 / 91011.5 11.0 7.4
2019-Dec-12 00:00N 44°36' W 124°00'0 0.0 160 / 141012.1 10.5 7.2
2019-Dec-11 23:00N 44°36' W 124°00'0 0.0 160 / 111012.6 10.8 6.9
2019-Dec-11 22:00N 44°36' W 124°00'0 0.0 170 / 161013.2 11.0 6.3
2019-Dec-11 21:00N 44°36' W 124°00'0 0.0 130 / 101014.0 10.7 6.6
2019-Dec-11 20:00N 44°36' W 124°00'0 0.0 160 / 91014.9 11.1 6.5
2019-Dec-11 19:00N 44°36' W 124°00'0 0.0 190 / 151016.0 11.5 7.2
2019-Dec-11 18:00N 44°36' W 124°00'0 0.0 200 / 121016.9 11.7 7.9
2019-Dec-11 17:00N 44°36' W 124°00'0 0.0 180 / 111016.9 11.9 7.8
2019-Dec-11 16:00N 44°36' W 124°00'0 0.0 170 / 111016.6 11.5 7.7
2019-Dec-11 15:00N 44°36' W 124°00'0 0.0 200 / 161016.9 11.4 7.6
2019-Dec-11 14:00N 44°36' W 124°00'0 0.0 150 / 101016.7 10.7 6.3
2019-Dec-11 13:00N 44°36' W 124°00'0 0.0 100 / 101016.4 10.0 6.1
2019-Dec-11 12:00N 44°36' W 124°00'0 0.0 100 / 91017.0 9.8 6.2
2019-Dec-11 11:00N 44°36' W 124°00'0 0.0 100 / 111017.4 9.5 5.8
2019-Dec-11 10:00N 44°36' W 124°00'0 0.0 100 / 101017.5 9.1 5.9
2019-Dec-11 09:00N 44°36' W 124°00'0 0.0 110 / 81017.5 8.5 5.5
2019-Dec-11 08:00N 44°36' W 124°00'0 0.0 100 / 71018.2 8.5 5.7
2019-Dec-11 07:00N 44°36' W 124°00'0 0.0 110 / 51018.7 8.5 5.9
2019-Dec-11 06:00N 44°36' W 124°00'0 0.0 100 / 91018.8 8.5 6.1
2019-Dec-11 05:00N 44°36' W 124°00'0 0.0 110 / 41019.7 8.3 5.8
2019-Dec-11 04:00N 44°36' W 124°00'0 0.0 120 / 61019.6 8.5 5.9
2019-Dec-11 03:00N 44°36' W 124°00'0 0.0 130 / 81019.4 8.6 6.1
2019-Dec-11 02:00N 44°36' W 124°00'0 0.0 110 / 51019.8 8.9 6.4
2019-Dec-11 01:00N 44°36' W 124°00'0 0.0 080 / 81019.9 9.3 6.7
2019-Dec-11 00:00N 44°36' W 124°00'0 0.0 120 / 71019.7 9.1 6.5
2019-Dec-10 23:00N 44°36' W 124°00'0 0.0 100 / 71020.0 9.0 6.6
2019-Dec-10 22:00N 44°36' W 124°00'0 0.0 120 / 51020.1 8.7 6.2
2019-Dec-10 21:00N 44°36' W 124°00'0 0.0 110 / 51020.4 8.6 6.1
2019-Dec-10 20:00N 44°36' W 124°00'0 0.0 160 / 91020.7 8.3 5.7
2019-Dec-10 19:00N 44°36' W 124°00'0 0.0 110 / 51020.9 8.2 5.6
2019-Dec-10 18:00N 44°36' W 124°00'0 0.0 090 / 71021.6 7.7 5.1
2019-Dec-10 17:00N 44°36' W 124°00'0 0.0 110 / 81021.1 7.5 4.8
2019-Dec-10 16:00N 44°36' W 124°00'0 0.0 110 / 61020.7 7.5 4.5
2019-Dec-10 15:00N 44°36' W 124°00'0 0.0 100 / 81020.8 7.8 3.7
2019-Dec-10 14:00N 44°36' W 124°00'0 0.0 110 / 71021.0 8.0 3.9
2019-Dec-10 13:00N 44°36' W 124°00'0 0.0 110 / 81021.1 8.0 4.0
2019-Dec-10 12:00N 44°36' W 124°00'0 0.0 120 / 91021.3 8.1 4.0
2019-Dec-10 11:00N 44°36' W 124°00'0 0.0 110 / 91021.7 7.9 3.8
2019-Dec-10 10:00N 44°36' W 124°00'0 0.0 120 / 81021.7 8.0 3.9
2019-Dec-10 09:00N 44°36' W 124°00'0 0.0 120 / 91022.0 8.0 3.8
2019-Dec-10 08:00N 44°36' W 124°00'0 0.0 110 / 81022.1 7.9 3.9
2019-Dec-10 07:00N 44°36' W 124°00'0 0.0 100 / 101021.6 8.1 4.1
2019-Dec-10 06:00N 44°36' W 124°00'0 0.0 110 / 81021.6 8.3 4.3
2019-Dec-10 05:00N 44°36' W 124°00'0 0.0 110 / 91021.6 8.6 4.6
2019-Dec-10 04:00N 44°36' W 124°00'0 0.0 160 / 121021.7 9.1 3.6
2019-Dec-10 03:00N 44°36' W 124°00'0 0.0 140 / 61022.1 9.2 4.3
2019-Dec-10 02:00N 44°36' W 124°00'0 0.0 130 / 41022.2 9.2 5.4
2019-Dec-10 01:00N 44°36' W 124°00'0 0.0 110 / 41022.0 9.4 5.4
2019-Dec-10 00:00N 44°36' W 124°00'0 0.0 160 / 21021.9 9.9 5.3
2019-Dec-09 23:00N 44°36' W 124°00'0 0.0 060 / 11021.9 10.1 4.9
2019-Dec-09 22:00N 44°36' W 124°00'0 0.0 080 / 71021.5 9.9 4.5
2019-Dec-09 21:00N 44°36' W 124°00'0 0.0 110 / 81021.8 9.8 4.4
2019-Dec-09 20:00N 44°36' W 124°00'0 0.0 130 / 91022.2 10.0 4.7
2019-Dec-09 19:00N 44°36' W 124°00'0 0.0 130 / 101022.5 10.0 4.6
2019-Dec-09 18:00N 44°36' W 124°00'0 0.0 120 / 81023.0 9.7 4.7
2019-Dec-09 17:00N 44°36' W 124°00'0 0.0 100 / 91022.9 8.5 4.5
2019-Dec-09 16:00N 44°36' W 124°00'0 0.0 090 / 101022.6 7.4 4.4
2019-Dec-09 15:00N 44°36' W 124°00'0 0.0 120 / 61022.5 6.5 4.1
2019-Dec-09 14:00N 44°36' W 124°00'0 0.0 090 / 41022.6 6.8 4.2
2019-Dec-09 13:00N 44°36' W 124°00'0 0.0 160 / 31022.6 7.7 4.8
2019-Dec-09 12:00N 44°36' W 124°00'0 0.0 100 / 91022.4 8.8 5.6
2019-Dec-09 11:00N 44°36' W 124°00'0 0.0 090 / 61022.6 8.7 5.7
2019-Dec-09 10:00N 44°36' W 124°00'0 0.0 110 / 81022.7 8.8 6.3
2019-Dec-09 09:00N 44°36' W 124°00'0 0.0 090 / 91022.9 8.4 6.1
2019-Dec-09 08:00N 44°36' W 124°00'0 0.0 120 / 81023.0 8.1 5.8
2019-Dec-09 07:00N 44°36' W 124°00'0 0.0 070 / 41023.1 8.0 5.7
2019-Dec-09 06:00N 44°36' W 124°00'0 0.0 120 / 81022.5 8.1 5.8
2019-Dec-09 05:00N 44°36' W 124°00'0 0.0 010 / 11022.5 8.3 5.9
2019-Dec-09 04:00N 44°36' W 124°00'0 0.0 030 / 21022.1 9.0 6.4
2019-Dec-09 03:00N 44°36' W 124°00'0 0.0 110 / 21022.0 9.8 7.2
2019-Dec-09 02:00N 44°36' W 124°00'0 0.0 1021.9 10.0 7.1
2019-Dec-09 01:00N 44°36' W 124°00'0 0.0 200 / 11022.0 10.2 7.1
2019-Dec-09 00:00N 44°36' W 124°00'0 0.0 1021.9 10.1 7.2
2019-Dec-08 23:00N 44°36' W 124°00'0 0.0 330 / 61021.6 10.2 7.4
2019-Dec-08 22:00N 44°36' W 124°00'0 0.0 340 / 71020.6 10.3 7.4
2019-Dec-08 21:00N 44°36' W 124°00'0 0.0 320 / 61020.1 10.9 7.4
2019-Dec-08 20:00N 44°36' W 124°00'0 0.0 320 / 31019.7 10.7 7.6
2019-Dec-08 19:00N 44°36' W 124°00'0 0.0 300 / 11019.8 10.5 7.2
2019-Dec-08 18:00N 44°36' W 124°00'0 0.0 140 1019.8 10.2 7.3
2019-Dec-08 17:00N 44°36' W 124°00'0 0.0 120 / 21018.8 10.2 7.8
2019-Dec-08 16:00N 44°36' W 124°00'0 0.0 110 / 31017.9 8.7 6.4
2019-Dec-08 15:00N 44°36' W 124°00'0 0.0 130 / 21017.4 8.4 6.1
2019-Dec-08 14:00N 44°36' W 124°00'0 0.0 090 / 51016.6 8.5 6.2
2019-Dec-08 13:00N 44°36' W 124°00'0 0.0 100 / 51015.6 8.7 6.5
2019-Dec-08 12:00N 44°36' W 124°00'0 0.0 190 / 11015.3 8.9 6.7
2019-Dec-08 11:00N 44°36' W 124°00'0 0.0 090 / 21014.1 8.6 6.4
2019-Dec-08 10:00N 44°36' W 124°00'0 0.0 100 / 21013.3 9.5 7.2
2019-Dec-08 09:00N 44°36' W 124°00'0 0.0 280 / 11012.6 9.8 7.4
2019-Dec-08 08:00N 44°36' W 124°00'0 0.0 350 / 41011.6 9.8 7.5
2019-Dec-08 07:00N 44°36' W 124°00'0 0.0 170 / 11010.8 10.2 7.9
2019-Dec-08 06:00N 44°36' W 124°00'0 0.0 250 / 11010.0 10.2 7.8
2019-Dec-08 05:00N 44°36' W 124°00'0 0.0 260 / 11009.3 10.3 7.9
2019-Dec-08 04:00N 44°36' W 124°00'0 0.0 120 / 11008.5 10.4 7.9
2019-Dec-08 03:00N 44°36' W 124°00'0 0.0 240 / 11007.9 10.3 7.7
2019-Dec-08 02:00N 44°36' W 124°00'0 0.0 120 / 21007.2 10.5 7.8
2019-Dec-08 01:00N 44°36' W 124°00'0 0.0 160 / 31006.8 10.8 7.9
2019-Dec-08 00:00N 44°36' W 124°00'0 0.0 220 / 51006.2 10.9 7.9
2019-Dec-07 23:00N 44°36' W 124°00'0 0.0 210 / 81005.7 11.0 8.0
2019-Dec-07 22:00N 44°36' W 124°00'0 0.0 150 / 101005.3 11.2 8.4
2019-Dec-07 21:00N 44°36' W 124°00'0 0.0 180 / 101005.2 11.0 8.3
2019-Dec-07 20:00N 44°36' W 124°00'0 0.0 140 / 121005.4 10.6 7.9
2019-Dec-07 19:00N 44°36' W 124°00'0 0.0 140 / 81006.0 10.9 7.3
2019-Dec-07 18:00N 44°36' W 124°00'0 0.0 080 / 151005.9 10.9 6.8
2019-Dec-07 17:00N 44°36' W 124°00'0 0.0 080 / 141005.8 10.9 6.8
2019-Dec-07 16:00N 44°36' W 124°00'0 0.0 150 / 121005.7 10.0 6.8
2019-Dec-07 15:00N 44°36' W 124°00'0 0.0 090 / 91005.9 9.9 7.0
2019-Dec-07 14:00N 44°36' W 124°00'0 0.0 120 / 91005.6 10.1 7.4
2019-Dec-07 13:00N 44°36' W 124°00'0 0.0 100 / 61006.0 10.8 7.7
2019-Dec-07 12:00N 44°36' W 124°00'0 0.0 100 / 81006.4 11.0 7.3
2019-Dec-07 11:00N 44°36' W 124°00'0 0.0 090 / 61006.7 11.0 7.9
2019-Dec-07 10:00N 44°36' W 124°00'0 0.0 100 / 81006.8 11.0 7.8
2019-Dec-07 09:00N 44°36' W 124°00'0 0.0 120 / 81006.8 11.1 7.2
2019-Dec-07 08:00N 44°36' W 124°00'0 0.0 090 / 91006.6 10.9 6.8
2019-Dec-07 07:00N 44°36' W 124°00'0 0.0 090 / 121006.9 11.4 6.3
2019-Dec-07 06:00N 44°36' W 124°00'0 0.0 080 / 121007.2 11.3 6.9
2019-Dec-07 05:00N 44°36' W 124°00'0 0.0 100 / 111007.3 11.3 6.4
2019-Dec-07 04:00N 44°36' W 124°00'0 0.0 100 / 111007.8 10.1 5.8
2019-Dec-07 03:00N 44°36' W 124°00'0 0.0 090 / 111008.4 9.2 5.4
2019-Dec-07 02:00N 44°36' W 124°00'0 0.0 090 / 161007.6 10.0 5.1
2019-Dec-07 01:00N 44°36' W 124°00'0 0.0 100 / 121008.5 9.8 4.7
2019-Dec-07 00:00N 44°36' W 124°00'0 0.0 110 / 101008.4 10.6 3.6
2019-Dec-06 23:00N 44°36' W 124°00'0 0.0 090 / 151008.3 11.0 3.5
2019-Dec-06 22:00N 44°36' W 124°00'0 0.0 120 / 101009.2 11.1 4.2
2019-Dec-06 21:00N 44°36' W 124°00'0 0.0 120 / 101009.8 10.7 3.8
2019-Dec-06 20:00N 44°36' W 124°00'0 0.0 100 / 121010.0 11.3 2.8
2019-Dec-06 19:00N 44°36' W 124°00'0 0.0 110 / 121010.7 12.3 2.9
2019-Dec-06 18:00N 44°36' W 124°00'0 0.0 080 / 171010.7 11.9 2.9
2019-Dec-06 17:00N 44°36' W 124°00'0 0.0 090 / 171010.1 11.3 2.6
2019-Dec-06 16:00N 44°36' W 124°00'0 0.0 100 / 141010.3 10.4 2.5
2019-Dec-06 15:00N 44°36' W 124°00'0 0.0 090 / 141010.2 10.4 2.8
2019-Dec-06 14:00N 44°36' W 124°00'0 0.0 100 / 131010.6 10.1 2.8
2019-Dec-06 13:00N 44°36' W 124°00'0 0.0 100 / 141010.5 9.9 3.0
2019-Dec-06 12:00N 44°36' W 124°00'0 0.0 120 / 101011.4 9.8 3.6
2019-Dec-06 11:00N 44°36' W 124°00'0 0.0 130 / 81012.3 9.6 4.1
2019-Dec-06 10:00N 44°36' W 124°00'0 0.0 120 / 121012.3 10.0 4.3
2019-Dec-06 09:00N 44°36' W 124°00'0 0.0 130 / 91012.2 9.1 4.8
2019-Dec-06 08:00N 44°36' W 124°00'0 0.0 110 / 51012.5 10.6 4.5
2019-Dec-06 07:00N 44°36' W 124°00'0 0.0 120 / 91012.1 11.5 4.5
2019-Dec-06 06:00N 44°36' W 124°00'0 0.0 100 / 81012.2 11.9 4.6
2019-Dec-06 05:00N 44°36' W 124°00'0 0.0 100 / 111012.1 12.2 4.5
2019-Dec-06 04:00N 44°36' W 124°00'0 0.0 110 / 91012.5 11.8 4.5
2019-Dec-06 03:00N 44°36' W 124°00'0 0.0 090 / 71013.1 11.9 4.7
2019-Dec-06 02:00N 44°36' W 124°00'0 0.0 080 / 181013.0 12.8 5.2
2019-Dec-06 01:00N 44°36' W 124°00'0 0.0 090 / 101013.2 13.1 6.0
2019-Dec-06 00:00N 44°36' W 124°00'0 0.0 090 / 81013.7 13.4 6.5
2019-Dec-05 23:00N 44°36' W 124°00'0 0.0 120 / 61014.3 13.7 6.7
2019-Dec-05 22:00N 44°36' W 124°00'0 0.0 120 / 51014.9 13.3 6.9
2019-Dec-05 21:00N 44°36' W 124°00'0 0.0 110 / 81015.4 12.1 7.0
2019-Dec-05 20:00N 44°36' W 124°00'0 0.0 090 / 41016.0 11.7 7.2
2019-Dec-05 19:00N 44°36' W 124°00'0 0.0 110 / 51016.8 10.5 6.4
2019-Dec-05 18:00N 44°36' W 124°00'0 0.0 100 / 41017.3 9.0 5.4
2019-Dec-05 17:00N 44°36' W 124°00'0 0.0 120 / 61016.6 8.0 4.7
2019-Dec-05 16:00N 44°36' W 124°00'0 0.0 120 / 61015.7 7.5 4.4
2019-Dec-05 15:00N 44°36' W 124°00'0 0.0 110 / 51015.0 7.6 4.6
2019-Dec-05 14:00N 44°36' W 124°00'0 0.0 120 / 61014.6 7.4 4.3
2019-Dec-05 13:00N 44°36' W 124°00'0 0.0 140 / 61013.8 7.6 4.3
2019-Dec-05 12:00N 44°36' W 124°00'0 0.0 120 / 91013.6 7.2 4.1
2019-Dec-05 11:00N 44°36' W 124°00'0 0.0 120 / 61013.8 6.6 4.1
2019-Dec-05 10:00N 44°36' W 124°00'0 0.0 130 / 71013.7 6.7 4.2
2019-Dec-05 09:00N 44°36' W 124°00'0 0.0 120 / 61013.4 6.9 4.4
2019-Dec-05 08:00N 44°36' W 124°00'0 0.0 130 / 51013.0 7.3 4.7
2019-Dec-05 07:00N 44°36' W 124°00'0 0.0 120 / 81012.8 7.5 4.9
2019-Dec-05 06:00N 44°36' W 124°00'0 0.0 120 / 51012.3 7.7 5.0
2019-Dec-05 05:00N 44°36' W 124°00'0 0.0 130 / 71011.6 8.0 5.4
2019-Dec-05 04:00N 44°36' W 124°00'0 0.0 100 / 41011.3 8.3 5.5
2019-Dec-05 03:00N 44°36' W 124°00'0 0.0 260 1011.0 8.5 5.6
2019-Dec-05 02:00N 44°36' W 124°00'0 0.0 100 / 51010.6 9.0 5.8
2019-Dec-05 01:00N 44°36' W 124°00'0 0.0 100 / 41010.7 9.5 5.8
2019-Dec-05 00:00N 44°36' W 124°00'0 0.0 320 / 41010.9 10.3 5.8
2019-Dec-04 23:00N 44°36' W 124°00'0 0.0 360 / 51010.9 10.4 5.6
2019-Dec-04 22:00N 44°36' W 124°00'0 0.0 350 / 91010.8 10.5 5.6
2019-Dec-04 21:00N 44°36' W 124°00'0 0.0 330 / 81010.9 11.8 4.9
2019-Dec-04 20:00N 44°36' W 124°00'0 0.0 140 / 71011.3 11.3 4.7
2019-Dec-04 19:00N 44°36' W 124°00'0 0.0 130 / 71011.9 9.5 4.2
2019-Dec-04 18:00N 44°36' W 124°00'0 0.0 130 / 61012.6 8.3 3.6
2019-Dec-04 17:00N 44°36' W 124°00'0 0.0 120 / 71012.5 7.4 3.4
2019-Dec-04 16:00N 44°36' W 124°00'0 0.0 120 / 91012.2 6.7 3.0
2019-Dec-04 15:00N 44°36' W 124°00'0 0.0 120 / 81012.0 6.4 3.2
2019-Dec-04 14:00N 44°36' W 124°00'0 0.0 120 / 81012.1 6.8 3.7
2019-Dec-04 13:00N 44°36' W 124°00'0 0.0 110 / 51012.5 6.8 3.7
2019-Dec-04 12:00N 44°36' W 124°00'0 0.0 130 / 91012.9 7.0 4.0
2019-Dec-04 11:00N 44°36' W 124°00'0 0.0 120 / 61013.4 7.2 4.4
2019-Dec-04 10:00N 44°36' W 124°00'0 0.0 120 / 51014.0 7.1 4.4
2019-Dec-04 09:00N 44°36' W 124°00'0 0.0 100 / 61014.5 7.3 4.5
2019-Dec-04 08:00N 44°36' W 124°00'0 0.0 110 / 41014.9 8.5 5.5
2019-Dec-04 07:00N 44°36' W 124°00'0 0.0 110 / 51015.6 8.8 5.6
2019-Dec-04 06:00N 44°36' W 124°00'0 0.0 130 / 71015.9 9.1 6.0
2019-Dec-04 05:00N 44°36' W 124°00'0 0.0 120 / 71016.0 9.2 6.2
2019-Dec-04 04:00N 44°36' W 124°00'0 0.0 100 / 41016.1 9.8 6.4
2019-Dec-04 03:00N 44°36' W 124°00'0 0.0 090 / 11016.5 10.5 6.4
2019-Dec-04 02:00N 44°36' W 124°00'0 0.0 080 / 21017.2 11.1 6.7
2019-Dec-04 01:00N 44°36' W 124°00'0 0.0 140 / 31017.6 11.9 5.4
2019-Dec-04 00:00N 44°36' W 124°00'0 0.0 220 / 11017.8 12.4 5.7
2019-Dec-03 23:00N 44°36' W 124°00'0 0.0 310 / 21018.5 13.8 5.0
2019-Dec-03 21:00N 44°36' W 124°00'0 0.0 130 / 31019.6 14.6 3.9
2019-Dec-03 20:00N 44°36' W 124°00'0 0.0 130 / 61020.4 12.4 4.0
2019-Dec-03 19:00N 44°36' W 124°00'0 0.0 140 / 91021.2 10.5 3.0
2019-Dec-03 18:00N 44°36' W 124°00'0 0.0 140 / 81021.7 8.6 2.5
2019-Dec-03 17:00N 44°36' W 124°00'0 0.0 130 / 81021.6 7.1 2.2
2019-Dec-03 16:00N 44°36' W 124°00'0 0.0 120 / 81021.2 6.1 2.0
2019-Dec-03 15:00N 44°36' W 124°00'0 0.0 090 / 61020.8 5.8 1.8
2019-Dec-03 14:00N 44°36' W 124°00'0 0.0 100 / 61020.7 6.0 2.0
2019-Dec-03 13:00N 44°36' W 124°00'0 0.0 120 / 121020.6 6.4 1.9
2019-Dec-03 12:00N 44°36' W 124°00'0 0.0 120 / 101020.8 6.5 1.7
2019-Dec-03 11:00N 44°36' W 124°00'0 0.0 110 / 91021.2 6.8 1.6
2019-Dec-03 10:00N 44°36' W 124°00'0 0.0 120 / 101021.4 7.1 1.5
2019-Dec-03 09:00N 44°36' W 124°00'0 0.0 130 / 121021.2 6.5 1.8
2019-Dec-03 08:00N 44°36' W 124°00'0 0.0 120 / 81021.6 6.6 2.0
2019-Dec-03 07:00N 44°36' W 124°00'0 0.0 130 / 71021.5 6.8 2.1
2019-Dec-03 06:00N 44°36' W 124°00'0 0.0 110 / 101021.4 8.3 1.7
2019-Dec-03 05:00N 44°36' W 124°00'0 0.0 120 / 101021.0 8.6 1.9
2019-Dec-03 04:00N 44°36' W 124°00'0 0.0 120 / 101020.8 8.9 2.3
2019-Dec-03 03:00N 44°36' W 124°00'0 0.0 090 / 141020.1 9.5 2.7
2019-Dec-03 02:00N 44°36' W 124°00'0 0.0 100 / 121019.8 10.2 2.7
2019-Dec-03 01:00N 44°36' W 124°00'0 0.0 090 / 81019.6 11.1 2.8
2019-Dec-03 00:00N 44°36' W 124°00'0 0.0 100 / 81019.1 12.2 3.0
2019-Dec-02 23:00N 44°36' W 124°00'0 0.0 090 / 71018.8 13.7 3.0
2019-Dec-02 22:00N 44°36' W 124°00'0 0.0 100 / 71018.5 13.8 3.3
2019-Dec-02 21:00N 44°36' W 124°00'0 0.0 090 / 81018.6 13.2 2.8
2019-Dec-02 20:00N 44°36' W 124°00'0 0.0 100 / 91019.1 12.3 2.2
2019-Dec-02 19:00N 44°36' W 124°00'0 0.0 110 / 81019.1 11.3 1.8
2019-Dec-02 18:00N 44°36' W 124°00'0 0.0 090 / 151018.8 9.8 0.9
2019-Dec-02 17:00N 44°36' W 124°00'0 0.0 110 / 121018.5 8.5 0.7
2019-Dec-02 16:00N 44°36' W 124°00'0 0.0 120 / 131018.0 7.2 0.3
2019-Dec-02 15:00N 44°36' W 124°00'0 0.0 110 / 121017.2 6.7 0.3
2019-Dec-02 14:00N 44°36' W 124°00'0 0.0 100 / 131016.7 6.6 0.3
2019-Dec-02 13:00N 44°36' W 124°00'0 0.0 090 / 151016.4 6.6 0.4
2019-Dec-02 12:00N 44°36' W 124°00'0 0.0 090 / 161015.9 6.7 0.5
2019-Dec-02 11:00N 44°36' W 124°00'0 0.0 080 / 161015.5 7.1 0.8
2019-Dec-02 10:00N 44°36' W 124°00'0 0.0 090 / 171014.8 7.7 1.1
2019-Dec-02 09:00N 44°36' W 124°00'0 0.0 090 / 181014.1 7.7 1.0
2019-Dec-02 08:00N 44°36' W 124°00'0 0.0 090 / 181014.1 7.7 1.1
2019-Dec-02 07:00N 44°36' W 124°00'0 0.0 090 / 221013.9 7.5 1.2
2019-Dec-02 06:00N 44°36' W 124°00'   090 / 201013.6 7.2 1.4
Track history (hours):
 
Tides and Currents Weather Stations Pressure Air Temp Water Temp Dewpoint Dewpoint Depression Visibility Wind Speed Wind Dir Waves Ship Positions

Oceanographic research ship Marcus G. Langseth (USA)

Detailed information on ship capabilities available from ARCUS's ALIAS (Arctic Logistics Information and Support) project.

Owner: Lamont Doherty Earth Observatory-Columbia University, Palisades, NY. More information available from US FCC via Universal Licensing System and Coast Guard Vessel Documentation Center.

Last reported at 2019-Dec-12 06:00 UTC. Time now 2019-Dec-12 07:56 UTC.
Position N 44°36' W 124°00'.

Length 72 m; draft 6.1 m.

Type: Ship. MMSI: 367059880.

Wind from 190 at 10 knots

Barometer 1013.9 mb
Air temperature 11.8 ° C
Dewpoint 9.3 ° C

Date/timePositionNaut miles runAvg speedWind from/ knotsBaromVisibWave heightAir tempDewpointWater temp
2019-Dec-12 06:00N 44°36' W 124°00'0 0.0 190 / 101013.9 11.8 9.3
2019-Dec-12 05:00N 44°36' W 124°00'0 0.0 210 / 121013.2 11.7 9.3
2019-Dec-12 04:00N 44°36' W 124°00'0 0.0 190 / 111012.2 11.5 9.0
2019-Dec-12 03:00N 44°36' W 124°00'0 0.0 190 / 111011.6 11.1 8.4
2019-Dec-12 02:00N 44°36' W 124°00'0 0.0 190 / 101011.0 11.3 8.3
2019-Dec-12 01:00N 44°36' W 124°00'0 0.0 200 / 91011.5 11.0 7.4
2019-Dec-12 00:00N 44°36' W 124°00'0 0.0 160 / 141012.1 10.5 7.2
2019-Dec-11 23:00N 44°36' W 124°00'0 0.0 160 / 111012.6 10.8 6.9
2019-Dec-11 22:00N 44°36' W 124°00'0 0.0 170 / 161013.2 11.0 6.3
2019-Dec-11 21:00N 44°36' W 124°00'0 0.0 130 / 101014.0 10.7 6.6
2019-Dec-11 20:00N 44°36' W 124°00'0 0.0 160 / 91014.9 11.1 6.5
2019-Dec-11 19:00N 44°36' W 124°00'0 0.0 190 / 151016.0 11.5 7.2
2019-Dec-11 18:00N 44°36' W 124°00'0 0.0 200 / 121016.9 11.7 7.9
2019-Dec-11 17:00N 44°36' W 124°00'0 0.0 180 / 111016.9 11.9 7.8
2019-Dec-11 16:00N 44°36' W 124°00'0 0.0 170 / 111016.6 11.5 7.7
2019-Dec-11 15:00N 44°36' W 124°00'0 0.0 200 / 161016.9 11.4 7.6
2019-Dec-11 14:00N 44°36' W 124°00'0 0.0 150 / 101016.7 10.7 6.3
2019-Dec-11 13:00N 44°36' W 124°00'0 0.0 100 / 101016.4 10.0 6.1
2019-Dec-11 12:00N 44°36' W 124°00'0 0.0 100 / 91017.0 9.8 6.2
2019-Dec-11 11:00N 44°36' W 124°00'0 0.0 100 / 111017.4 9.5 5.8
2019-Dec-11 10:00N 44°36' W 124°00'0 0.0 100 / 101017.5 9.1 5.9
2019-Dec-11 09:00N 44°36' W 124°00'0 0.0 110 / 81017.5 8.5 5.5
2019-Dec-11 08:00N 44°36' W 124°00'0 0.0 100 / 71018.2 8.5 5.7
2019-Dec-11 07:00N 44°36' W 124°00'0 0.0 110 / 51018.7 8.5 5.9
2019-Dec-11 06:00N 44°36' W 124°00'0 0.0 100 / 91018.8 8.5 6.1
2019-Dec-11 05:00N 44°36' W 124°00'0 0.0 110 / 41019.7 8.3 5.8
2019-Dec-11 04:00N 44°36' W 124°00'0 0.0 120 / 61019.6 8.5 5.9
2019-Dec-11 03:00N 44°36' W 124°00'0 0.0 130 / 81019.4 8.6 6.1
2019-Dec-11 02:00N 44°36' W 124°00'0 0.0 110 / 51019.8 8.9 6.4
2019-Dec-11 01:00N 44°36' W 124°00'0 0.0 080 / 81019.9 9.3 6.7
2019-Dec-11 00:00N 44°36' W 124°00'0 0.0 120 / 71019.7 9.1 6.5
2019-Dec-10 23:00N 44°36' W 124°00'0 0.0 100 / 71020.0 9.0 6.6
2019-Dec-10 22:00N 44°36' W 124°00'0 0.0 120 / 51020.1 8.7 6.2
2019-Dec-10 21:00N 44°36' W 124°00'0 0.0 110 / 51020.4 8.6 6.1
2019-Dec-10 20:00N 44°36' W 124°00'0 0.0 160 / 91020.7 8.3 5.7
2019-Dec-10 19:00N 44°36' W 124°00'0 0.0 110 / 51020.9 8.2 5.6
2019-Dec-10 18:00N 44°36' W 124°00'0 0.0 090 / 71021.6 7.7 5.1
2019-Dec-10 17:00N 44°36' W 124°00'0 0.0 110 / 81021.1 7.5 4.8
2019-Dec-10 16:00N 44°36' W 124°00'0 0.0 110 / 61020.7 7.5 4.5
2019-Dec-10 15:00N 44°36' W 124°00'0 0.0 100 / 81020.8 7.8 3.7
2019-Dec-10 14:00N 44°36' W 124°00'0 0.0 110 / 71021.0 8.0 3.9
2019-Dec-10 13:00N 44°36' W 124°00'0 0.0 110 / 81021.1 8.0 4.0
2019-Dec-10 12:00N 44°36' W 124°00'0 0.0 120 / 91021.3 8.1 4.0
2019-Dec-10 11:00N 44°36' W 124°00'0 0.0 110 / 91021.7 7.9 3.8
2019-Dec-10 10:00N 44°36' W 124°00'0 0.0 120 / 81021.7 8.0 3.9
2019-Dec-10 09:00N 44°36' W 124°00'0 0.0 120 / 91022.0 8.0 3.8
2019-Dec-10 08:00N 44°36' W 124°00'0 0.0 110 / 81022.1 7.9 3.9
2019-Dec-10 07:00N 44°36' W 124°00'0 0.0 100 / 101021.6 8.1 4.1
2019-Dec-10 06:00N 44°36' W 124°00'0 0.0 110 / 81021.6 8.3 4.3
2019-Dec-10 05:00N 44°36' W 124°00'0 0.0 110 / 91021.6 8.6 4.6
2019-Dec-10 04:00N 44°36' W 124°00'0 0.0 160 / 121021.7 9.1 3.6
2019-Dec-10 03:00N 44°36' W 124°00'0 0.0 140 / 61022.1 9.2 4.3
2019-Dec-10 02:00N 44°36' W 124°00'0 0.0 130 / 41022.2 9.2 5.4
2019-Dec-10 01:00N 44°36' W 124°00'0 0.0 110 / 41022.0 9.4 5.4
2019-Dec-10 00:00N 44°36' W 124°00'0 0.0 160 / 21021.9 9.9 5.3
2019-Dec-09 23:00N 44°36' W 124°00'0 0.0 060 / 11021.9 10.1 4.9
2019-Dec-09 22:00N 44°36' W 124°00'0 0.0 080 / 71021.5 9.9 4.5
2019-Dec-09 21:00N 44°36' W 124°00'0 0.0 110 / 81021.8 9.8 4.4
2019-Dec-09 20:00N 44°36' W 124°00'0 0.0 130 / 91022.2 10.0 4.7
2019-Dec-09 19:00N 44°36' W 124°00'0 0.0 130 / 101022.5 10.0 4.6
2019-Dec-09 18:00N 44°36' W 124°00'0 0.0 120 / 81023.0 9.7 4.7
2019-Dec-09 17:00N 44°36' W 124°00'0 0.0 100 / 91022.9 8.5 4.5
2019-Dec-09 16:00N 44°36' W 124°00'0 0.0 090 / 101022.6 7.4 4.4
2019-Dec-09 15:00N 44°36' W 124°00'0 0.0 120 / 61022.5 6.5 4.1
2019-Dec-09 14:00N 44°36' W 124°00'0 0.0 090 / 41022.6 6.8 4.2
2019-Dec-09 13:00N 44°36' W 124°00'0 0.0 160 / 31022.6 7.7 4.8
2019-Dec-09 12:00N 44°36' W 124°00'0 0.0 100 / 91022.4 8.8 5.6
2019-Dec-09 11:00N 44°36' W 124°00'0 0.0 090 / 61022.6 8.7 5.7
2019-Dec-09 10:00N 44°36' W 124°00'0 0.0 110 / 81022.7 8.8 6.3
2019-Dec-09 09:00N 44°36' W 124°00'0 0.0 090 / 91022.9 8.4 6.1
2019-Dec-09 08:00N 44°36' W 124°00'0 0.0 120 / 81023.0 8.1 5.8
2019-Dec-09 07:00N 44°36' W 124°00'0 0.0 070 / 41023.1 8.0 5.7
2019-Dec-09 06:00N 44°36' W 124°00'0 0.0 120 / 81022.5 8.1 5.8
2019-Dec-09 05:00N 44°36' W 124°00'0 0.0 010 / 11022.5 8.3 5.9
2019-Dec-09 04:00N 44°36' W 124°00'0 0.0 030 / 21022.1 9.0 6.4
2019-Dec-09 03:00N 44°36' W 124°00'0 0.0 110 / 21022.0 9.8 7.2
2019-Dec-09 02:00N 44°36' W 124°00'0 0.0 1021.9 10.0 7.1
2019-Dec-09 01:00N 44°36' W 124°00'0 0.0 200 / 11022.0 10.2 7.1
2019-Dec-09 00:00N 44°36' W 124°00'0 0.0 1021.9 10.1 7.2
2019-Dec-08 23:00N 44°36' W 124°00'0 0.0 330 / 61021.6 10.2 7.4
2019-Dec-08 22:00N 44°36' W 124°00'0 0.0 340 / 71020.6 10.3 7.4
2019-Dec-08 21:00N 44°36' W 124°00'0 0.0 320 / 61020.1 10.9 7.4
2019-Dec-08 20:00N 44°36' W 124°00'0 0.0 320 / 31019.7 10.7 7.6
2019-Dec-08 19:00N 44°36' W 124°00'0 0.0 300 / 11019.8 10.5 7.2
2019-Dec-08 18:00N 44°36' W 124°00'0 0.0 140 1019.8 10.2 7.3
2019-Dec-08 17:00N 44°36' W 124°00'0 0.0 120 / 21018.8 10.2 7.8
2019-Dec-08 16:00N 44°36' W 124°00'0 0.0 110 / 31017.9 8.7 6.4
2019-Dec-08 15:00N 44°36' W 124°00'0 0.0 130 / 21017.4 8.4 6.1
2019-Dec-08 14:00N 44°36' W 124°00'0 0.0 090 / 51016.6 8.5 6.2
2019-Dec-08 13:00N 44°36' W 124°00'0 0.0 100 / 51015.6 8.7 6.5
2019-Dec-08 12:00N 44°36' W 124°00'0 0.0 190 / 11015.3 8.9 6.7
2019-Dec-08 11:00N 44°36' W 124°00'0 0.0 090 / 21014.1 8.6 6.4
2019-Dec-08 10:00N 44°36' W 124°00'0 0.0 100 / 21013.3 9.5 7.2
2019-Dec-08 09:00N 44°36' W 124°00'0 0.0 280 / 11012.6 9.8 7.4
2019-Dec-08 08:00N 44°36' W 124°00'0 0.0 350 / 41011.6 9.8 7.5
2019-Dec-08 07:00N 44°36' W 124°00'0 0.0 170 / 11010.8 10.2 7.9
2019-Dec-08 06:00N 44°36' W 124°00'0 0.0 250 / 11010.0 10.2 7.8
2019-Dec-08 05:00N 44°36' W 124°00'0 0.0 260 / 11009.3 10.3 7.9
2019-Dec-08 04:00N 44°36' W 124°00'0 0.0 120 / 11008.5 10.4 7.9
2019-Dec-08 03:00N 44°36' W 124°00'0 0.0 240 / 11007.9 10.3 7.7
2019-Dec-08 02:00N 44°36' W 124°00'0 0.0 120 / 21007.2 10.5 7.8
2019-Dec-08 01:00N 44°36' W 124°00'0 0.0 160 / 31006.8 10.8 7.9
2019-Dec-08 00:00N 44°36' W 124°00'0 0.0 220 / 51006.2 10.9 7.9
2019-Dec-07 23:00N 44°36' W 124°00'0 0.0 210 / 81005.7 11.0 8.0
2019-Dec-07 22:00N 44°36' W 124°00'0 0.0 150 / 101005.3 11.2 8.4
2019-Dec-07 21:00N 44°36' W 124°00'0 0.0 180 / 101005.2 11.0 8.3
2019-Dec-07 20:00N 44°36' W 124°00'0 0.0 140 / 121005.4 10.6 7.9
2019-Dec-07 19:00N 44°36' W 124°00'0 0.0 140 / 81006.0 10.9 7.3
2019-Dec-07 18:00N 44°36' W 124°00'0 0.0 080 / 151005.9 10.9 6.8
2019-Dec-07 17:00N 44°36' W 124°00'0 0.0 080 / 141005.8 10.9 6.8
2019-Dec-07 16:00N 44°36' W 124°00'0 0.0 150 / 121005.7 10.0 6.8
2019-Dec-07 15:00N 44°36' W 124°00'0 0.0 090 / 91005.9 9.9 7.0
2019-Dec-07 14:00N 44°36' W 124°00'0 0.0 120 / 91005.6 10.1 7.4
2019-Dec-07 13:00N 44°36' W 124°00'0 0.0 100 / 61006.0 10.8 7.7
2019-Dec-07 12:00N 44°36' W 124°00'0 0.0 100 / 81006.4 11.0 7.3
2019-Dec-07 11:00N 44°36' W 124°00'0 0.0 090 / 61006.7 11.0 7.9
2019-Dec-07 10:00N 44°36' W 124°00'0 0.0 100 / 81006.8 11.0 7.8
2019-Dec-07 09:00N 44°36' W 124°00'0 0.0 120 / 81006.8 11.1 7.2
2019-Dec-07 08:00N 44°36' W 124°00'0 0.0 090 / 91006.6 10.9 6.8
2019-Dec-07 07:00N 44°36' W 124°00'0 0.0 090 / 121006.9 11.4 6.3
2019-Dec-07 06:00N 44°36' W 124°00'0 0.0 080 / 121007.2 11.3 6.9
2019-Dec-07 05:00N 44°36' W 124°00'0 0.0 100 / 111007.3 11.3 6.4
2019-Dec-07 04:00N 44°36' W 124°00'0 0.0 100 / 111007.8 10.1 5.8
2019-Dec-07 03:00N 44°36' W 124°00'0 0.0 090 / 111008.4 9.2 5.4
2019-Dec-07 02:00N 44°36' W 124°00'0 0.0 090 / 161007.6 10.0 5.1
2019-Dec-07 01:00N 44°36' W 124°00'0 0.0 100 / 121008.5 9.8 4.7
2019-Dec-07 00:00N 44°36' W 124°00'0 0.0 110 / 101008.4 10.6 3.6
2019-Dec-06 23:00N 44°36' W 124°00'0 0.0 090 / 151008.3 11.0 3.5
2019-Dec-06 22:00N 44°36' W 124°00'0 0.0 120 / 101009.2 11.1 4.2
2019-Dec-06 21:00N 44°36' W 124°00'0 0.0 120 / 101009.8 10.7 3.8
2019-Dec-06 20:00N 44°36' W 124°00'0 0.0 100 / 121010.0 11.3 2.8
2019-Dec-06 19:00N 44°36' W 124°00'0 0.0 110 / 121010.7 12.3 2.9
2019-Dec-06 18:00N 44°36' W 124°00'0 0.0 080 / 171010.7 11.9 2.9
2019-Dec-06 17:00N 44°36' W 124°00'0 0.0 090 / 171010.1 11.3 2.6
2019-Dec-06 16:00N 44°36' W 124°00'0 0.0 100 / 141010.3 10.4 2.5
2019-Dec-06 15:00N 44°36' W 124°00'0 0.0 090 / 141010.2 10.4 2.8
2019-Dec-06 14:00N 44°36' W 124°00'0 0.0 100 / 131010.6 10.1 2.8
2019-Dec-06 13:00N 44°36' W 124°00'0 0.0 100 / 141010.5 9.9 3.0
2019-Dec-06 12:00N 44°36' W 124°00'0 0.0 120 / 101011.4 9.8 3.6
2019-Dec-06 11:00N 44°36' W 124°00'0 0.0 130 / 81012.3 9.6 4.1
2019-Dec-06 10:00N 44°36' W 124°00'0 0.0 120 / 121012.3 10.0 4.3
2019-Dec-06 09:00N 44°36' W 124°00'0 0.0 130 / 91012.2 9.1 4.8
2019-Dec-06 08:00N 44°36' W 124°00'0 0.0 110 / 51012.5 10.6 4.5
2019-Dec-06 07:00N 44°36' W 124°00'0 0.0 120 / 91012.1 11.5 4.5
2019-Dec-06 06:00N 44°36' W 124°00'0 0.0 100 / 81012.2 11.9 4.6
2019-Dec-06 05:00N 44°36' W 124°00'0 0.0 100 / 111012.1 12.2 4.5
2019-Dec-06 04:00N 44°36' W 124°00'0 0.0 110 / 91012.5 11.8 4.5
2019-Dec-06 03:00N 44°36' W 124°00'0 0.0 090 / 71013.1 11.9 4.7
2019-Dec-06 02:00N 44°36' W 124°00'0 0.0 080 / 181013.0 12.8 5.2
2019-Dec-06 01:00N 44°36' W 124°00'0 0.0 090 / 101013.2 13.1 6.0
2019-Dec-06 00:00N 44°36' W 124°00'0 0.0 090 / 81013.7 13.4 6.5
2019-Dec-05 23:00N 44°36' W 124°00'0 0.0 120 / 61014.3 13.7 6.7
2019-Dec-05 22:00N 44°36' W 124°00'0 0.0 120 / 51014.9 13.3 6.9
2019-Dec-05 21:00N 44°36' W 124°00'0 0.0 110 / 81015.4 12.1 7.0
2019-Dec-05 20:00N 44°36' W 124°00'0 0.0 090 / 41016.0 11.7 7.2
2019-Dec-05 19:00N 44°36' W 124°00'0 0.0 110 / 51016.8 10.5 6.4
2019-Dec-05 18:00N 44°36' W 124°00'0 0.0 100 / 41017.3 9.0 5.4
2019-Dec-05 17:00N 44°36' W 124°00'0 0.0 120 / 61016.6 8.0 4.7
2019-Dec-05 16:00N 44°36' W 124°00'0 0.0 120 / 61015.7 7.5 4.4
2019-Dec-05 15:00N 44°36' W 124°00'0 0.0 110 / 51015.0 7.6 4.6
2019-Dec-05 14:00N 44°36' W 124°00'0 0.0 120 / 61014.6 7.4 4.3
2019-Dec-05 13:00N 44°36' W 124°00'0 0.0 140 / 61013.8 7.6 4.3
2019-Dec-05 12:00N 44°36' W 124°00'0 0.0 120 / 91013.6 7.2 4.1
2019-Dec-05 11:00N 44°36' W 124°00'0 0.0 120 / 61013.8 6.6 4.1
2019-Dec-05 10:00N 44°36' W 124°00'0 0.0 130 / 71013.7 6.7 4.2
2019-Dec-05 09:00N 44°36' W 124°00'0 0.0 120 / 61013.4 6.9 4.4
2019-Dec-05 08:00N 44°36' W 124°00'0 0.0 130 / 51013.0 7.3 4.7
2019-Dec-05 07:00N 44°36' W 124°00'0 0.0 120 / 81012.8 7.5 4.9
2019-Dec-05 06:00N 44°36' W 124°00'0 0.0 120 / 51012.3 7.7 5.0
2019-Dec-05 05:00N 44°36' W 124°00'0 0.0 130 / 71011.6 8.0 5.4
2019-Dec-05 04:00N 44°36' W 124°00'0 0.0 100 / 41011.3 8.3 5.5
2019-Dec-05 03:00N 44°36' W 124°00'0 0.0 260 1011.0 8.5 5.6
2019-Dec-05 02:00N 44°36' W 124°00'0 0.0 100 / 51010.6 9.0 5.8
2019-Dec-05 01:00N 44°36' W 124°00'0 0.0 100 / 41010.7 9.5 5.8
2019-Dec-05 00:00N 44°36' W 124°00'0 0.0 320 / 41010.9 10.3 5.8
2019-Dec-04 23:00N 44°36' W 124°00'0 0.0 360 / 51010.9 10.4 5.6
2019-Dec-04 22:00N 44°36' W 124°00'0 0.0 350 / 91010.8 10.5 5.6
2019-Dec-04 21:00N 44°36' W 124°00'0 0.0 330 / 81010.9 11.8 4.9
2019-Dec-04 20:00N 44°36' W 124°00'0 0.0 140 / 71011.3 11.3 4.7
2019-Dec-04 19:00N 44°36' W 124°00'0 0.0 130 / 71011.9 9.5 4.2
2019-Dec-04 18:00N 44°36' W 124°00'0 0.0 130 / 61012.6 8.3 3.6
2019-Dec-04 17:00N 44°36' W 124°00'0 0.0 120 / 71012.5 7.4 3.4
2019-Dec-04 16:00N 44°36' W 124°00'0 0.0 120 / 91012.2 6.7 3.0
2019-Dec-04 15:00N 44°36' W 124°00'0 0.0 120 / 81012.0 6.4 3.2
2019-Dec-04 14:00N 44°36' W 124°00'0 0.0 120 / 81012.1 6.8 3.7
2019-Dec-04 13:00N 44°36' W 124°00'0 0.0 110 / 51012.5 6.8 3.7
2019-Dec-04 12:00N 44°36' W 124°00'0 0.0 130 / 91012.9 7.0 4.0
2019-Dec-04 11:00N 44°36' W 124°00'0 0.0 120 / 61013.4 7.2 4.4
2019-Dec-04 10:00N 44°36' W 124°00'0 0.0 120 / 51014.0 7.1 4.4
2019-Dec-04 09:00N 44°36' W 124°00'0 0.0 100 / 61014.5 7.3 4.5
2019-Dec-04 08:00N 44°36' W 124°00'0 0.0 110 / 41014.9 8.5 5.5
2019-Dec-04 07:00N 44°36' W 124°00'0 0.0 110 / 51015.6 8.8 5.6
2019-Dec-04 06:00N 44°36' W 124°00'0 0.0 130 / 71015.9 9.1 6.0
2019-Dec-04 05:00N 44°36' W 124°00'0 0.0 120 / 71016.0 9.2 6.2
2019-Dec-04 04:00N 44°36' W 124°00'0 0.0 100 / 41016.1 9.8 6.4
2019-Dec-04 03:00N 44°36' W 124°00'0 0.0 090 / 11016.5 10.5 6.4
2019-Dec-04 02:00N 44°36' W 124°00'0 0.0 080 / 21017.2 11.1 6.7
2019-Dec-04 01:00N 44°36' W 124°00'0 0.0 140 / 31017.6 11.9 5.4
2019-Dec-04 00:00N 44°36' W 124°00'0 0.0 220 / 11017.8 12.4 5.7
2019-Dec-03 23:00N 44°36' W 124°00'0 0.0 310 / 21018.5 13.8 5.0
2019-Dec-03 21:00N 44°36' W 124°00'0 0.0 130 / 31019.6 14.6 3.9
2019-Dec-03 20:00N 44°36' W 124°00'0 0.0 130 / 61020.4 12.4 4.0
2019-Dec-03 19:00N 44°36' W 124°00'0 0.0 140 / 91021.2 10.5 3.0
2019-Dec-03 18:00N 44°36' W 124°00'0 0.0 140 / 81021.7 8.6 2.5
2019-Dec-03 17:00N 44°36' W 124°00'0 0.0 130 / 81021.6 7.1 2.2
2019-Dec-03 16:00N 44°36' W 124°00'0 0.0 120 / 81021.2 6.1 2.0
2019-Dec-03 15:00N 44°36' W 124°00'0 0.0 090 / 61020.8 5.8 1.8
2019-Dec-03 14:00N 44°36' W 124°00'0 0.0 100 / 61020.7 6.0 2.0
2019-Dec-03 13:00N 44°36' W 124°00'0 0.0 120 / 121020.6 6.4 1.9
2019-Dec-03 12:00N 44°36' W 124°00'0 0.0 120 / 101020.8 6.5 1.7
2019-Dec-03 11:00N 44°36' W 124°00'0 0.0 110 / 91021.2 6.8 1.6
2019-Dec-03 10:00N 44°36' W 124°00'0 0.0 120 / 101021.4 7.1 1.5
2019-Dec-03 09:00N 44°36' W 124°00'0 0.0 130 / 121021.2 6.5 1.8
2019-Dec-03 08:00N 44°36' W 124°00'0 0.0 120 / 81021.6 6.6 2.0
2019-Dec-03 07:00N 44°36' W 124°00'0 0.0 130 / 71021.5 6.8 2.1
2019-Dec-03 06:00N 44°36' W 124°00'0 0.0 110 / 101021.4 8.3 1.7
2019-Dec-03 05:00N 44°36' W 124°00'0 0.0 120 / 101021.0 8.6 1.9
2019-Dec-03 04:00N 44°36' W 124°00'0 0.0 120 / 101020.8 8.9 2.3
2019-Dec-03 03:00N 44°36' W 124°00'0 0.0 090 / 141020.1 9.5 2.7
2019-Dec-03 02:00N 44°36' W 124°00'0 0.0 100 / 121019.8 10.2 2.7
2019-Dec-03 01:00N 44°36' W 124°00'0 0.0 090 / 81019.6 11.1 2.8
2019-Dec-03 00:00N 44°36' W 124°00'0 0.0 100 / 81019.1 12.2 3.0
2019-Dec-02 23:00N 44°36' W 124°00'0 0.0 090 / 71018.8 13.7 3.0
2019-Dec-02 22:00N 44°36' W 124°00'0 0.0 100 / 71018.5 13.8 3.3
2019-Dec-02 21:00N 44°36' W 124°00'0 0.0 090 / 81018.6 13.2 2.8
2019-Dec-02 20:00N 44°36' W 124°00'0 0.0 100 / 91019.1 12.3 2.2
2019-Dec-02 19:00N 44°36' W 124°00'0 0.0 110 / 81019.1 11.3 1.8
2019-Dec-02 18:00N 44°36' W 124°00'0 0.0 090 / 151018.8 9.8 0.9
2019-Dec-02 17:00N 44°36' W 124°00'0 0.0 110 / 121018.5 8.5 0.7
2019-Dec-02 16:00N 44°36' W 124°00'0 0.0 120 / 131018.0 7.2 0.3
2019-Dec-02 15:00N 44°36' W 124°00'0 0.0 110 / 121017.2 6.7 0.3
2019-Dec-02 14:00N 44°36' W 124°00'0 0.0 100 / 131016.7 6.6 0.3
2019-Dec-02 13:00N 44°36' W 124°00'0 0.0 090 / 151016.4 6.6 0.4
2019-Dec-02 12:00N 44°36' W 124°00'0 0.0 090 / 161015.9 6.7 0.5
2019-Dec-02 11:00N 44°36' W 124°00'0 0.0 080 / 161015.5 7.1 0.8
2019-Dec-02 10:00N 44°36' W 124°00'0 0.0 090 / 171014.8 7.7 1.1
2019-Dec-02 09:00N 44°36' W 124°00'0 0.0 090 / 181014.1 7.7 1.0
2019-Dec-02 08:00N 44°36' W 124°00'0 0.0 090 / 181014.1 7.7 1.1
2019-Dec-02 07:00N 44°36' W 124°00'0 0.0 090 / 221013.9 7.5 1.2
2019-Dec-02 06:00N 44°36' W 124°00'   090 / 201013.6 7.2 1.4

Dump ship's entire track history